Ingeniero Alberto Acuna Ongay International Airport
MMCP : now visible

Airfield :











YOU CAN JOIN US ON...

 
LOGIN :

Register | Disclaimer

   EN    FR    IT 

 









Legend :    VFR   Marginal VFR   IFR   Intensive IFR   Very Intensive IFR
Visi :
Ceiling :
>= 8 km
>= 3000ft
5 to 8 km
1000 to 3000 ft
1500m to 5 km
500 to 1000 ft
800 to 1500m
200 to 500 ft
< 800m
< 200 ft
Symbols :   Thunderstorms  Fog  Heavy snow  Heavy precipitations  Wind > 20 kt






- Airport Elevation : 34 ft
- IATA code : CPE


MMCP - Ingeniero Alberto Acuna Ongay International

CURRENT METAR :
  • 062054Z 33008KT 7SM SKC 32/23 A2984 RMK SLP094 57021 916

EXPIRED METARs :
  • 061952Z 30006KT 7SM SKC 32/22 A2985
  • 061854Z 10008KT 7SM SKC 37/17 A2987

TAF TAF MMCP
Valid from the 06 at 18:00 until the 07 at 18:00 UTC


061721Z 0618/0718 13010KT 6SM HZ SKC
FM070000 03015KT P6SM SCT015
FM070600 12012KT 6SM HZ BKN015



MET'MAP, your aeronautical weather chart ! - Copyright ORBIFLY December 2007 - Disclaimer

ORBIFLY MET'MAP TEAM :

Programming & Development : Alexandra Zaïnal
Concept & original design : Baudouin d'Aumeries
Assistance for programming : Marc-Olivier Méhu
Technical & hardware support : Manuel Goepfert

Contact : metmap@orbifly.com




SOURCES & CREDITS :

   NOAA       Earth
Advisory